createdAt,value
2018-08-16T00:00:18.205Z,15.20
2018-08-16T00:02:47.232Z,15.10
2018-08-16T00:05:15.745Z,15.10
2018-08-16T00:07:44.169Z,15.00
2018-08-16T00:10:14.372Z,14.90
2018-08-16T00:12:44.319Z,14.90
2018-08-16T00:15:12.981Z,14.90
2018-08-16T00:17:41.637Z,14.80
2018-08-16T00:20:10.139Z,14.80
2018-08-16T00:22:38.539Z,14.80
2018-08-16T00:25:07.729Z,14.80
2018-08-16T00:27:36.200Z,14.80
2018-08-16T00:30:06.932Z,14.80
2018-08-16T00:32:35.479Z,14.70
2018-08-16T00:35:04.193Z,14.70
2018-08-16T00:37:32.607Z,14.70
2018-08-16T00:40:00.959Z,14.70
2018-08-16T00:42:31.683Z,14.60
2018-08-16T00:45:00.029Z,14.60
2018-08-16T00:47:28.466Z,14.60
2018-08-16T00:49:56.886Z,14.50
2018-08-16T00:52:25.309Z,14.50
2018-08-16T00:54:53.676Z,14.50
2018-08-16T00:57:22.100Z,14.50
2018-08-16T00:59:50.534Z,14.50
2018-08-16T01:02:18.931Z,14.40
2018-08-16T01:04:47.277Z,14.40
2018-08-16T01:07:15.643Z,14.30
2018-08-16T01:09:44.033Z,14.30
2018-08-16T01:12:12.387Z,14.30
2018-08-16T01:14:40.805Z,14.20
2018-08-16T01:17:09.499Z,14.20
2018-08-16T01:19:37.897Z,14.20
2018-08-16T01:22:06.619Z,14.10
2018-08-16T01:24:35.015Z,14.00
2018-08-16T01:27:03.424Z,14.00
2018-08-16T01:29:31.829Z,14.00
2018-08-16T01:32:00.176Z,13.90
2018-08-16T01:34:28.548Z,13.90
2018-08-16T01:36:56.931Z,13.90
2018-08-16T01:39:25.315Z,13.90
2018-08-16T01:41:53.635Z,13.90
2018-08-16T01:44:22.010Z,13.80
2018-08-16T01:46:50.388Z,13.80
2018-08-16T01:49:33.272Z,13.80
2018-08-16T01:52:01.740Z,13.80
2018-08-16T01:54:30.595Z,13.70
2018-08-16T01:56:59.739Z,13.80
2018-08-16T01:59:28.175Z,13.70
2018-08-16T02:01:56.597Z,13.70
2018-08-16T02:04:24.980Z,13.80
2018-08-16T02:06:53.760Z,13.80
2018-08-16T02:09:22.990Z,13.90
2018-08-16T02:11:51.828Z,13.90
2018-08-16T02:14:20.751Z,13.90
2018-08-16T02:16:49.607Z,13.90
2018-08-16T02:19:18.027Z,13.90
2018-08-16T02:21:46.407Z,13.90
2018-08-16T02:24:14.781Z,13.80
2018-08-16T02:26:43.144Z,13.70
2018-08-16T02:29:11.636Z,13.80
2018-08-16T02:31:39.994Z,13.70
2018-08-16T02:34:08.408Z,13.70
2018-08-16T02:36:36.828Z,13.60
2018-08-16T02:39:07.776Z,13.60
2018-08-16T02:41:36.439Z,13.50
2018-08-16T02:44:04.840Z,13.50
2018-08-16T02:46:33.215Z,13.40
2018-08-16T02:49:01.543Z,13.40
2018-08-16T02:51:29.916Z,13.30
2018-08-16T02:53:58.251Z,13.30
2018-08-16T02:56:26.652Z,13.20
2018-08-16T02:58:55.000Z,13.20
2018-08-16T03:01:23.478Z,13.10
2018-08-16T03:03:51.808Z,13.10
2018-08-16T03:06:20.180Z,13.10
2018-08-16T03:08:48.508Z,13.10
2018-08-16T03:11:16.880Z,13.10
2018-08-16T03:13:45.219Z,13.10
2018-08-16T03:16:13.632Z,13.10
2018-08-16T03:18:41.972Z,13.10
2018-08-16T03:21:10.349Z,13.10
2018-08-16T03:23:38.704Z,13.00
2018-08-16T03:26:07.111Z,13.00
2018-08-16T03:28:35.460Z,13.00
2018-08-16T03:31:03.844Z,12.90
2018-08-16T03:33:32.224Z,12.90
2018-08-16T03:36:00.604Z,12.90
2018-08-16T03:38:28.972Z,12.90
2018-08-16T03:40:57.331Z,13.00
2018-08-16T03:43:25.712Z,12.90
2018-08-16T03:45:54.064Z,12.90
2018-08-16T03:48:22.467Z,12.90
2018-08-16T03:50:50.815Z,12.90
2018-08-16T03:53:19.195Z,12.90
2018-08-16T03:55:47.544Z,12.90
2018-08-16T03:58:15.948Z,13.00
2018-08-16T04:00:44.288Z,13.00
2018-08-16T04:03:12.669Z,13.00
2018-08-16T04:05:41.036Z,13.00
2018-08-16T04:08:09.800Z,13.00
2018-08-16T04:10:38.164Z,13.00
2018-08-16T04:13:06.543Z,13.00
2018-08-16T04:15:34.944Z,13.00
2018-08-16T04:18:03.332Z,13.00
2018-08-16T04:20:31.661Z,13.00
2018-08-16T04:23:00.032Z,13.10
2018-08-16T04:25:28.370Z,13.10
2018-08-16T04:27:56.749Z,13.10
2018-08-16T04:30:25.116Z,13.10
2018-08-16T04:32:53.492Z,13.10
2018-08-16T04:35:21.923Z,13.20
2018-08-16T04:37:50.272Z,13.20
2018-08-16T04:40:18.647Z,13.20
2018-08-16T04:42:47.016Z,13.20
2018-08-16T04:45:15.363Z,13.20
2018-08-16T04:47:43.766Z,13.20
2018-08-16T04:50:12.947Z,13.20
2018-08-16T04:52:41.371Z,13.20
2018-08-16T04:55:10.539Z,13.20
2018-08-16T04:57:39.347Z,13.30
2018-08-16T05:00:11.133Z,13.30
2018-08-16T05:02:39.703Z,13.40
2018-08-16T05:05:08.569Z,13.40
2018-08-16T05:07:37.077Z,13.40
2018-08-16T05:10:06.760Z,13.40
2018-08-16T05:12:35.137Z,13.50
2018-08-16T05:15:03.530Z,13.50
2018-08-16T05:17:31.907Z,13.60
2018-08-16T05:20:00.268Z,13.60
2018-08-16T05:22:28.636Z,13.60
2018-08-16T05:24:56.986Z,13.70
2018-08-16T05:27:25.388Z,13.70
2018-08-16T05:29:53.732Z,13.80
2018-08-16T05:32:22.116Z,13.80
2018-08-16T05:34:50.580Z,13.90
2018-08-16T05:37:18.955Z,14.00
2018-08-16T05:39:47.324Z,14.00
2018-08-16T05:42:15.738Z,14.10
2018-08-16T05:44:44.072Z,14.20
2018-08-16T05:47:12.444Z,14.20
2018-08-16T05:49:40.824Z,14.30
2018-08-16T05:52:09.179Z,14.40
2018-08-16T05:54:37.561Z,14.50
2018-08-16T05:57:05.925Z,14.60
2018-08-16T05:59:34.308Z,14.70
2018-08-16T06:02:02.687Z,14.80
2018-08-16T06:04:31.080Z,14.90
2018-08-16T06:06:59.433Z,15.10
2018-08-16T06:09:27.937Z,15.20
2018-08-16T06:11:56.276Z,15.40
2018-08-16T06:14:24.657Z,15.50
2018-08-16T06:16:53.020Z,15.70
2018-08-16T06:19:21.416Z,15.90
2018-08-16T06:21:49.787Z,16.00
2018-08-16T06:24:18.192Z,16.20
2018-08-16T06:26:46.535Z,16.40
2018-08-16T06:29:14.904Z,16.60
2018-08-16T06:31:43.372Z,16.80
2018-08-16T06:34:11.695Z,16.90
2018-08-16T06:36:40.065Z,17.20
2018-08-16T06:39:10.512Z,17.30
2018-08-16T06:41:39.477Z,17.50
2018-08-16T06:44:07.911Z,17.70
2018-08-16T06:46:36.312Z,17.90
2018-08-16T06:49:04.736Z,18.00
2018-08-16T06:51:33.160Z,18.10
2018-08-16T06:54:01.540Z,18.30
2018-08-16T06:56:29.912Z,18.50
2018-08-16T06:58:58.295Z,18.60
2018-08-16T07:01:26.779Z,18.80
2018-08-16T07:03:55.157Z,19.00
2018-08-16T07:06:23.524Z,19.20
2018-08-16T07:08:52.017Z,19.40
2018-08-16T07:11:20.355Z,19.60
2018-08-16T07:13:48.792Z,19.80
2018-08-16T07:16:17.144Z,20.00
2018-08-16T07:18:45.581Z,20.10
2018-08-16T07:21:14.013Z,20.30
2018-08-16T07:23:42.576Z,20.50
2018-08-16T07:26:10.932Z,20.80
2018-08-16T07:28:39.312Z,21.00
2018-08-16T07:31:07.672Z,21.20
2018-08-16T07:33:36.026Z,21.30
2018-08-16T07:36:04.455Z,21.50
2018-08-16T07:38:32.787Z,21.60
2018-08-16T07:41:01.187Z,21.70
2018-08-16T07:43:29.521Z,21.90
2018-08-16T07:45:57.960Z,22.20
2018-08-16T07:48:26.451Z,22.40
2018-08-16T07:50:54.857Z,22.50
2018-08-16T07:53:23.206Z,22.60
2018-08-16T07:55:51.580Z,22.80
2018-08-16T07:58:20.004Z,23.00
2018-08-16T08:00:48.375Z,23.10
2018-08-16T08:03:16.725Z,23.20
2018-08-16T08:05:45.114Z,23.30
2018-08-16T08:08:13.500Z,23.40
2018-08-16T08:10:41.897Z,23.40
2018-08-16T08:13:10.267Z,23.60
2018-08-16T08:15:38.664Z,23.80
2018-08-16T08:18:07.144Z,23.80
2018-08-16T08:20:35.532Z,23.90
2018-08-16T08:23:03.887Z,24.00
2018-08-16T08:25:32.335Z,24.00
2018-08-16T08:28:00.655Z,24.10
2018-08-16T08:30:29.044Z,24.10
2018-08-16T08:32:57.415Z,24.30
2018-08-16T08:35:25.819Z,24.30
2018-08-16T08:38:03.392Z,24.50
2018-08-16T08:40:31.820Z,24.70
2018-08-16T08:43:00.159Z,24.80
2018-08-16T08:45:28.527Z,24.90
2018-08-16T08:47:57.908Z,25.00
2018-08-16T08:50:26.865Z,25.10
2018-08-16T08:53:05.116Z,25.20
2018-08-16T08:55:44.952Z,25.30
2018-08-16T08:58:24.504Z,25.40
2018-08-16T09:00:52.888Z,25.40
2018-08-16T09:03:21.466Z,25.40
2018-08-16T09:05:49.854Z,25.50
2018-08-16T09:08:18.236Z,25.60
2018-08-16T09:11:13.536Z,25.70
2018-08-16T09:13:54.519Z,25.70
2018-08-16T09:16:24.863Z,25.90
2018-08-16T09:18:53.228Z,25.90
2018-08-16T09:21:21.648Z,26.00
2018-08-16T09:23:50.148Z,26.00
2018-08-16T09:26:23.820Z,26.10
2018-08-16T09:28:52.155Z,26.20
2018-08-16T09:31:31.860Z,26.30
2018-08-16T09:34:11.464Z,26.40
2018-08-16T09:36:39.842Z,26.50
2018-08-16T09:39:09.132Z,26.40
2018-08-16T09:41:37.939Z,26.40
2018-08-16T09:44:06.616Z,26.50
2018-08-16T09:47:15.298Z,26.70
2018-08-16T09:49:46.796Z,26.90
2018-08-16T09:52:15.747Z,26.90
2018-08-16T09:54:44.106Z,27.00
2018-08-16T09:57:13.500Z,26.80
2018-08-16T09:59:41.907Z,26.70
2018-08-16T10:02:12.773Z,26.70
2018-08-16T10:04:41.118Z,26.80
2018-08-16T10:07:09.527Z,26.80
2018-08-16T10:09:37.885Z,26.80
2018-08-16T10:12:06.285Z,26.80
2018-08-16T10:14:34.615Z,26.80
2018-08-16T10:17:02.980Z,26.80
2018-08-16T10:19:31.337Z,26.80
2018-08-16T10:21:59.752Z,26.80
2018-08-16T10:24:28.119Z,26.80
2018-08-16T10:26:56.541Z,26.70
2018-08-16T10:29:24.843Z,26.70
2018-08-16T10:31:53.205Z,26.80
2018-08-16T10:34:21.560Z,27.00
2018-08-16T10:36:49.945Z,27.10
2018-08-16T10:39:18.860Z,27.30
2018-08-16T10:41:47.345Z,27.40
2018-08-16T10:44:15.733Z,27.40
2018-08-16T10:46:44.268Z,27.50
2018-08-16T10:49:12.624Z,27.50
2018-08-16T10:51:41.040Z,27.60
2018-08-16T10:54:09.423Z,27.70
2018-08-16T10:56:37.761Z,27.70
2018-08-16T10:59:06.280Z,27.70
2018-08-16T11:01:34.626Z,27.70
2018-08-16T11:04:03.013Z,27.80
2018-08-16T11:06:31.354Z,27.80
2018-08-16T11:08:59.736Z,28.00
2018-08-16T11:11:28.092Z,28.10
2018-08-16T11:13:56.469Z,28.10
2018-08-16T11:16:24.812Z,28.00
2018-08-16T11:18:53.272Z,28.00
2018-08-16T11:21:21.611Z,28.00
2018-08-16T11:23:50.006Z,28.10
2018-08-16T11:26:18.364Z,28.00
2018-08-16T11:28:46.727Z,28.10
2018-08-16T11:31:15.112Z,28.00
2018-08-16T11:33:43.471Z,28.10
2018-08-16T11:36:11.819Z,28.20
2018-08-16T11:38:40.219Z,28.20
2018-08-16T11:41:08.616Z,28.30
2018-08-16T11:43:36.999Z,28.30
2018-08-16T11:46:05.367Z,28.30
2018-08-16T11:48:33.792Z,28.30
2018-08-16T11:51:02.275Z,28.30
2018-08-16T11:53:30.664Z,28.30
2018-08-16T11:55:59.004Z,28.40
2018-08-16T11:58:27.385Z,28.50
2018-08-16T12:00:55.855Z,28.50
2018-08-16T12:03:24.756Z,28.50
2018-08-16T12:05:53.092Z,28.50
2018-08-16T12:08:21.463Z,28.30
2018-08-16T12:10:49.801Z,28.30
2018-08-16T12:13:18.163Z,28.20
2018-08-16T12:15:46.489Z,28.10
2018-08-16T12:18:15.079Z,28.20
2018-08-16T12:20:43.413Z,28.30
2018-08-16T12:23:11.781Z,28.50
2018-08-16T12:25:40.124Z,28.50
2018-08-16T12:28:08.668Z,28.50
2018-08-16T12:30:36.993Z,28.50
2018-08-16T12:33:05.376Z,28.40
2018-08-16T12:35:33.709Z,28.30
2018-08-16T12:38:02.096Z,28.10
2018-08-16T12:40:30.475Z,28.00
2018-08-16T12:42:58.844Z,28.00
2018-08-16T12:45:29.032Z,28.00
2018-08-16T12:47:57.389Z,28.00
2018-08-16T12:50:25.789Z,28.00
2018-08-16T12:52:54.120Z,28.00
2018-08-16T12:55:22.517Z,28.10
2018-08-16T12:57:50.863Z,28.10
2018-08-16T13:00:19.239Z,28.30
2018-08-16T13:02:48.527Z,28.30
2018-08-16T13:05:16.951Z,28.30
2018-08-16T13:07:45.375Z,28.30
2018-08-16T13:10:14.300Z,28.30
2018-08-16T13:12:42.720Z,28.30
2018-08-16T13:15:11.476Z,28.30
2018-08-16T13:17:40.436Z,28.30
2018-08-16T13:20:09.560Z,28.40
2018-08-16T13:22:38.009Z,28.40
2018-08-16T13:25:06.875Z,28.30
2018-08-16T13:27:35.322Z,28.30
2018-08-16T13:30:04.393Z,28.30
2018-08-16T13:32:32.717Z,28.40
2018-08-16T13:35:01.096Z,28.30
2018-08-16T13:37:29.423Z,28.30
2018-08-16T13:39:57.792Z,28.20
2018-08-16T13:42:26.197Z,28.10
2018-08-16T13:44:54.574Z,28.10
2018-08-16T13:47:22.903Z,28.10
2018-08-16T13:49:51.373Z,28.20
2018-08-16T13:52:19.704Z,28.20
2018-08-16T13:54:48.080Z,28.10
2018-08-16T13:57:16.487Z,28.00
2018-08-16T13:59:44.857Z,28.00
2018-08-16T14:02:13.293Z,27.90
2018-08-16T14:04:41.780Z,27.90
2018-08-16T14:07:10.187Z,27.80
2018-08-16T14:09:38.586Z,27.80
2018-08-16T14:12:06.920Z,27.90
2018-08-16T14:14:35.401Z,27.90
2018-08-16T14:17:03.911Z,28.00
2018-08-16T14:19:32.364Z,28.00
2018-08-16T14:22:00.724Z,28.10
2018-08-16T14:24:29.124Z,28.10
2018-08-16T14:26:57.473Z,28.30
2018-08-16T14:29:25.812Z,28.40
2018-08-16T14:31:54.175Z,28.40
2018-08-16T14:34:22.524Z,28.40
2018-08-16T14:36:50.923Z,28.50
2018-08-16T14:39:19.363Z,28.60
2018-08-16T14:41:47.809Z,28.60
2018-08-16T14:44:16.132Z,28.50
2018-08-16T14:46:44.511Z,28.50
2018-08-16T14:49:12.844Z,28.60
2018-08-16T14:51:41.606Z,28.60
2018-08-16T14:54:10.216Z,28.60
2018-08-16T14:56:38.588Z,28.50
2018-08-16T14:59:06.921Z,28.60
2018-08-16T15:01:35.283Z,28.60
2018-08-16T15:04:03.640Z,28.60
2018-08-16T15:06:32.004Z,28.60
2018-08-16T15:09:00.343Z,28.60
2018-08-16T15:11:28.724Z,28.60
2018-08-16T15:13:57.252Z,28.50
2018-08-16T15:16:25.636Z,28.50
2018-08-16T15:18:53.984Z,28.50
2018-08-16T15:21:22.343Z,28.40
2018-08-16T15:23:50.665Z,28.40
2018-08-16T15:26:19.064Z,28.30
2018-08-16T15:28:47.387Z,28.30
2018-08-16T15:31:15.828Z,28.20
2018-08-16T15:33:44.171Z,28.20
2018-08-16T15:36:12.516Z,28.30
2018-08-16T15:38:40.844Z,28.30
2018-08-16T15:41:09.348Z,28.30
2018-08-16T15:43:38.028Z,28.40
2018-08-16T15:46:06.785Z,28.40
2018-08-16T15:48:35.116Z,28.50
2018-08-16T15:51:03.479Z,28.50
2018-08-16T15:53:31.828Z,28.50
2018-08-16T15:56:00.180Z,28.50
2018-08-16T15:58:28.516Z,28.50
2018-08-16T16:00:56.848Z,28.40
2018-08-16T16:03:25.226Z,28.40
2018-08-16T16:05:53.659Z,28.40
2018-08-16T16:08:21.942Z,28.50
2018-08-16T16:10:50.275Z,28.50
2018-08-16T16:13:18.656Z,28.50
2018-08-16T16:15:46.997Z,28.50
2018-08-16T16:18:15.364Z,28.50
2018-08-16T16:20:43.723Z,28.50
2018-08-16T16:23:12.084Z,28.50
2018-08-16T16:25:40.411Z,28.40
2018-08-16T16:28:08.798Z,28.30
2018-08-16T16:30:37.176Z,28.20
2018-08-16T16:33:05.677Z,28.10
2018-08-16T16:35:33.995Z,28.10
2018-08-16T16:38:02.388Z,28.10
2018-08-16T16:40:30.880Z,28.10
2018-08-16T16:42:59.260Z,28.00
2018-08-16T16:45:27.591Z,28.00
2018-08-16T16:47:55.960Z,28.00
2018-08-16T16:50:24.305Z,27.90
2018-08-16T16:52:52.688Z,27.90
2018-08-16T16:55:21.041Z,27.80
2018-08-16T16:57:49.416Z,27.90
2018-08-16T17:00:17.765Z,27.90
2018-08-16T17:02:46.134Z,27.90
2018-08-16T17:05:14.491Z,27.80
2018-08-16T17:07:42.859Z,27.70
2018-08-16T17:10:12.293Z,27.70
2018-08-16T17:12:41.222Z,27.70
2018-08-16T17:15:09.769Z,27.70
2018-08-16T17:17:38.590Z,27.70
2018-08-16T17:20:07.247Z,27.70
2018-08-16T17:22:35.611Z,27.70
2018-08-16T17:25:04.011Z,27.60
2018-08-16T17:27:32.376Z,27.60
2018-08-16T17:30:00.700Z,27.50
2018-08-16T17:32:29.184Z,27.40
2018-08-16T17:34:57.509Z,27.40
2018-08-16T17:37:25.903Z,27.40
2018-08-16T17:39:54.238Z,27.40
2018-08-16T17:42:22.639Z,27.30
2018-08-16T17:44:50.988Z,27.20
2018-08-16T17:47:19.360Z,27.20
2018-08-16T17:49:47.812Z,27.10
2018-08-16T17:52:16.285Z,27.00
2018-08-16T17:54:44.640Z,27.00
2018-08-16T17:57:13.020Z,27.10
2018-08-16T17:59:41.388Z,27.20
2018-08-16T18:02:09.713Z,27.30
2018-08-16T18:04:38.088Z,27.40
2018-08-16T18:07:06.427Z,27.30
2018-08-16T18:09:34.815Z,27.20
2018-08-16T18:12:03.196Z,27.10
2018-08-16T18:14:31.567Z,27.00
2018-08-16T18:16:59.937Z,26.90
2018-08-16T18:19:28.305Z,26.80
2018-08-16T18:21:56.663Z,26.70
2018-08-16T18:24:25.150Z,26.60
2018-08-16T18:26:53.405Z,26.50
2018-08-16T18:29:21.785Z,26.40
2018-08-16T18:31:50.140Z,26.30
2018-08-16T18:34:18.545Z,26.20
2018-08-16T18:36:46.888Z,26.00
2018-08-16T18:39:15.273Z,25.90
2018-08-16T18:41:43.645Z,25.80
2018-08-16T18:44:12.017Z,25.70
2018-08-16T18:46:40.373Z,25.60
2018-08-16T18:49:08.747Z,25.50
2018-08-16T18:51:37.072Z,25.40
2018-08-16T18:54:05.461Z,25.30
2018-08-16T18:56:33.815Z,25.20
2018-08-16T18:59:02.192Z,25.10
2018-08-16T19:01:30.584Z,25.00
2018-08-16T19:03:58.964Z,24.90
2018-08-16T19:06:27.394Z,24.80
2018-08-16T19:08:55.772Z,24.70
2018-08-16T19:11:24.144Z,24.60
2018-08-16T19:13:52.581Z,24.50
2018-08-16T19:16:20.948Z,24.40
2018-08-16T19:18:49.334Z,24.30
2018-08-16T19:21:17.685Z,24.20
2018-08-16T19:23:46.054Z,24.10
2018-08-16T19:26:14.392Z,23.90
2018-08-16T19:28:42.768Z,23.80
2018-08-16T19:31:11.119Z,23.70
2018-08-16T19:33:39.492Z,23.60
2018-08-16T19:36:07.888Z,23.40
2018-08-16T19:38:36.211Z,23.20
2018-08-16T19:41:06.423Z,23.10
2018-08-16T19:43:34.779Z,22.90
2018-08-16T19:46:03.178Z,22.80
2018-08-16T19:48:31.948Z,22.70
2018-08-16T19:51:00.416Z,22.60
2018-08-16T19:53:28.904Z,22.60
2018-08-16T19:55:57.347Z,22.50
2018-08-16T19:58:25.715Z,22.50
2018-08-16T20:00:54.230Z,22.40
2018-08-16T20:03:22.539Z,22.30
2018-08-16T20:05:50.921Z,22.20
2018-08-16T20:08:19.272Z,22.00
2018-08-16T20:10:47.706Z,21.90
2018-08-16T20:13:16.044Z,21.90
2018-08-16T20:15:44.430Z,21.80
2018-08-16T20:18:12.870Z,21.80
2018-08-16T20:20:41.163Z,21.80
2018-08-16T20:23:09.511Z,21.70
2018-08-16T20:25:37.891Z,21.70
2018-08-16T20:28:06.268Z,21.70
2018-08-16T20:30:34.656Z,21.60
2018-08-16T20:33:03.036Z,21.60
2018-08-16T20:35:31.601Z,21.50
2018-08-16T20:38:00.012Z,21.40
2018-08-16T20:40:28.497Z,21.30
2018-08-16T20:42:56.860Z,21.20
2018-08-16T20:45:25.241Z,21.10
2018-08-16T20:47:53.608Z,20.90
2018-08-16T20:50:22.028Z,20.80
2018-08-16T20:52:50.449Z,20.70
2018-08-16T20:55:18.857Z,20.70
2018-08-16T20:57:47.264Z,20.60
2018-08-16T21:00:15.663Z,20.50
2018-08-16T21:02:44.004Z,20.50
2018-08-16T21:05:12.375Z,20.40
2018-08-16T21:07:40.715Z,20.40
2018-08-16T21:10:10.001Z,20.30
2018-08-16T21:12:38.452Z,20.30
2018-08-16T21:15:07.334Z,20.20
2018-08-16T21:17:35.593Z,20.20
2018-08-16T21:20:04.527Z,20.10
2018-08-16T21:22:32.875Z,20.10
2018-08-16T21:25:02.275Z,20.00
2018-08-16T21:27:30.643Z,20.00
2018-08-16T21:29:58.992Z,19.90
2018-08-16T21:32:27.365Z,19.90
2018-08-16T21:34:55.705Z,19.90
2018-08-16T21:37:24.079Z,19.90
2018-08-16T21:39:52.424Z,19.90
2018-08-16T21:42:21.626Z,19.80
2018-08-16T21:44:49.960Z,19.80
2018-08-16T21:47:18.372Z,19.80
2018-08-16T21:49:46.715Z,19.70
2018-08-16T21:52:15.151Z,19.70
2018-08-16T21:54:43.449Z,19.70
2018-08-16T21:57:11.832Z,19.70
2018-08-16T21:59:40.160Z,19.60
2018-08-16T22:02:08.608Z,19.60
2018-08-16T22:04:36.976Z,19.50
2018-08-16T22:07:12.792Z,19.50
2018-08-16T22:09:41.135Z,19.40
2018-08-16T22:12:09.527Z,19.30
2018-08-16T22:14:37.860Z,19.20
2018-08-16T22:17:06.336Z,19.20
2018-08-16T22:19:34.824Z,19.10
2018-08-16T22:22:03.220Z,19.00
2018-08-16T22:24:31.567Z,19.00
2018-08-16T22:26:59.947Z,18.90
2018-08-16T22:29:28.297Z,18.80
2018-08-16T22:31:56.692Z,18.80
2018-08-16T22:34:25.028Z,18.70
2018-08-16T22:36:53.425Z,18.70
2018-08-16T22:39:21.912Z,18.60
2018-08-16T22:41:50.362Z,18.60
2018-08-16T22:44:18.856Z,18.50
2018-08-16T22:46:47.300Z,18.50
2018-08-16T22:49:15.647Z,18.50
2018-08-16T22:51:44.051Z,18.50
2018-08-16T22:54:12.360Z,18.40
2018-08-16T22:56:40.736Z,18.40
2018-08-16T22:59:09.081Z,18.40
2018-08-16T23:01:37.507Z,18.40
2018-08-16T23:04:05.935Z,18.40
2018-08-16T23:06:34.307Z,18.40
2018-08-16T23:09:02.639Z,18.40
2018-08-16T23:11:31.049Z,18.40
2018-08-16T23:13:59.416Z,18.40
2018-08-16T23:16:27.757Z,18.40
2018-08-16T23:18:56.137Z,18.40
2018-08-16T23:21:24.484Z,18.40
2018-08-16T23:23:53.367Z,18.40
2018-08-16T23:26:21.699Z,18.40
2018-08-16T23:28:50.072Z,18.40
2018-08-16T23:31:18.404Z,18.40
2018-08-16T23:33:46.801Z,18.30
2018-08-16T23:36:15.143Z,18.40
2018-08-16T23:38:43.521Z,18.40
2018-08-16T23:41:11.896Z,18.30
2018-08-16T23:43:40.270Z,18.30
2018-08-16T23:46:08.616Z,18.30
2018-08-16T23:48:37.000Z,18.30
2018-08-16T23:51:05.436Z,18.30
2018-08-16T23:53:33.911Z,18.30
2018-08-16T23:56:02.276Z,18.30
2018-08-16T23:58:30.671Z,18.20
